sensor_id;sensor_type;location;lat;lon;timestamp;pressure;altitude;pressure_sealevel;temperature;humidity
22104;BME280;11218;48.886;9.426;2023-05-24T00:00:07;98279.59;;;14.74;68.20
22104;BME280;11218;48.886;9.426;2023-05-24T00:02:40;98279.34;;;14.76;68.62
22104;BME280;11218;48.886;9.426;2023-05-24T00:05:11;98290.44;;;14.90;68.72
22104;BME280;11218;48.886;9.426;2023-05-24T00:07:40;98279.03;;;14.98;67.94
22104;BME280;11218;48.886;9.426;2023-05-24T00:10:10;98280.69;;;14.84;66.28
22104;BME280;11218;48.886;9.426;2023-05-24T00:12:39;98278.81;;;14.84;67.59
22104;BME280;11218;48.886;9.426;2023-05-24T00:15:08;98287.47;;;14.81;66.21
22104;BME280;11218;48.886;9.426;2023-05-24T00:17:37;98281.25;;;14.81;67.07
22104;BME280;11218;48.886;9.426;2023-05-24T00:20:10;98272.56;;;14.84;67.36
22104;BME280;11218;48.886;9.426;2023-05-24T00:22:40;98279.06;;;14.77;65.50
22104;BME280;11218;48.886;9.426;2023-05-24T00:25:09;98276.34;;;14.72;66.19
22104;BME280;11218;48.886;9.426;2023-05-24T00:27:40;98271.47;;;14.74;66.16
22104;BME280;11218;48.886;9.426;2023-05-24T00:30:09;98270.13;;;14.72;64.75
22104;BME280;11218;48.886;9.426;2023-05-24T00:32:40;98270.13;;;14.72;65.10
22104;BME280;11218;48.886;9.426;2023-05-24T00:35:10;98266.34;;;14.73;65.35
22104;BME280;11218;48.886;9.426;2023-05-24T00:37:38;98271.22;;;14.76;65.81
22104;BME280;11218;48.886;9.426;2023-05-24T00:40:11;98264.72;;;14.77;65.63
22104;BME280;11218;48.886;9.426;2023-05-24T00:42:39;98267.97;;;14.79;65.76
22104;BME280;11218;48.886;9.426;2023-05-24T00:45:08;98267.41;;;14.82;65.03
22104;BME280;11218;48.886;9.426;2023-05-24T00:47:37;98262.00;;;14.77;65.24
22104;BME280;11218;48.886;9.426;2023-05-24T00:50:06;98260.09;;;14.72;63.37
22104;BME280;11218;48.886;9.426;2023-05-24T00:52:36;98259.56;;;14.65;64.97
22104;BME280;11218;48.886;9.426;2023-05-24T00:55:06;98268.75;;;14.54;63.82
22104;BME280;11218;48.886;9.426;2023-05-24T00:57:35;98259.25;;;14.41;63.60
22104;BME280;11218;48.886;9.426;2023-05-24T01:00:05;98265.19;;;14.38;64.79
22104;BME280;11218;48.886;9.426;2023-05-24T01:02:34;98256.22;;;14.33;64.73
22104;BME280;11218;48.886;9.426;2023-05-24T01:05:04;98254.34;;;14.28;64.99
22104;BME280;11218;48.886;9.426;2023-05-24T01:07:39;98268.94;;;14.27;66.34
22104;BME280;11218;48.886;9.426;2023-05-24T01:10:16;98260.56;;;14.29;66.21
22104;BME280;11218;48.886;9.426;2023-05-24T01:12:55;98257.84;;;14.24;66.19
22104;BME280;11218;48.886;9.426;2023-05-24T01:15:32;98254.06;;;14.25;66.46
22104;BME280;11218;48.886;9.426;2023-05-24T01:18:11;98265.97;;;14.29;66.79
22104;BME280;11218;48.886;9.426;2023-05-24T01:20:43;98268.13;;;14.27;66.83
22104;BME280;11218;48.886;9.426;2023-05-24T01:23:40;98258.66;;;14.24;66.90
22104;BME280;11218;48.886;9.426;2023-05-24T01:26:19;98256.47;;;14.16;66.65
22104;BME280;11218;48.886;9.426;2023-05-24T01:28:54;98254.59;;;14.22;66.97
22104;BME280;11218;48.886;9.426;2023-05-24T01:31:23;98263.25;;;14.19;67.02
22104;BME280;11218;48.886;9.426;2023-05-24T01:33:52;98267.31;;;14.26;67.43
22104;BME280;11218;48.886;9.426;2023-05-24T01:36:20;98262.72;;;14.27;67.21
22104;BME280;11218;48.886;9.426;2023-05-24T01:38:50;98263.25;;;14.24;66.85
22104;BME280;11218;48.886;9.426;2023-05-24T01:41:27;98259.72;;;14.13;66.67
22104;BME280;11218;48.886;9.426;2023-05-24T01:44:03;98262.13;;;13.99;66.63
22104;BME280;11218;48.886;9.426;2023-05-24T01:46:35;98262.44;;;14.08;67.34
22104;BME280;11218;48.886;9.426;2023-05-24T01:49:17;98267.53;;;13.94;65.48
22104;BME280;11218;48.886;9.426;2023-05-24T01:51:48;98269.16;;;13.90;67.45
22104;BME280;11218;48.886;9.426;2023-05-24T01:54:21;98269.94;;;13.86;67.83
22104;BME280;11218;48.886;9.426;2023-05-24T01:56:51;98266.19;;;13.92;68.26
22104;BME280;11218;48.886;9.426;2023-05-24T01:59:23;98276.19;;;13.96;68.64
22104;BME280;11218;48.886;9.426;2023-05-24T02:01:53;98270.78;;;13.91;67.49
22104;BME280;11218;48.886;9.426;2023-05-24T02:04:23;98277.22;;;13.80;67.75
22104;BME280;11218;48.886;9.426;2023-05-24T02:06:51;98273.66;;;13.69;67.37
22104;BME280;11218;48.886;9.426;2023-05-24T02:09:20;98284.66;;;13.53;67.79
22104;BME280;11218;48.886;9.426;2023-05-24T02:11:48;98288.69;;;13.45;68.75
22104;BME280;11218;48.886;9.426;2023-05-24T02:14:16;98291.63;;;13.33;68.08
22104;BME280;11218;48.886;9.426;2023-05-24T02:16:47;98291.81;;;13.22;68.65
22104;BME280;11218;48.886;9.426;2023-05-24T02:19:16;98285.66;;;13.31;69.96
22104;BME280;11218;48.886;9.426;2023-05-24T02:21:44;98289.97;;;13.32;69.82
22104;BME280;11218;48.886;9.426;2023-05-24T02:24:13;98288.28;;;13.21;69.46
22104;BME280;11218;48.886;9.426;2023-05-24T02:26:42;98285.78;;;13.14;69.39
22104;BME280;11218;48.886;9.426;2023-05-24T02:29:10;98285.03;;;13.19;70.72
22104;BME280;11218;48.886;9.426;2023-05-24T02:31:38;98286.22;;;13.33;70.42
22104;BME280;11218;48.886;9.426;2023-05-24T02:34:08;98288.41;;;13.46;69.19
22104;BME280;11218;48.886;9.426;2023-05-24T02:36:36;98286.22;;;13.43;69.81
22104;BME280;11218;48.886;9.426;2023-05-24T02:39:04;98287.56;;;13.41;68.99
22104;BME280;11218;48.886;9.426;2023-05-24T02:41:33;98292.31;;;13.19;68.96
22104;BME280;11218;48.886;9.426;2023-05-24T02:44:01;98287.47;;;13.21;69.00
22104;BME280;11218;48.886;9.426;2023-05-24T02:46:29;98289.81;;;13.12;69.43
22104;BME280;11218;48.886;9.426;2023-05-24T02:48:58;98287.81;;;12.97;70.01
22104;BME280;11218;48.886;9.426;2023-05-24T02:51:27;98291.38;;;13.03;70.78
22104;BME280;11218;48.886;9.426;2023-05-24T02:53:55;98287.84;;;13.02;71.75
22104;BME280;11218;48.886;9.426;2023-05-24T02:56:23;98297.06;;;13.06;70.83
22104;BME280;11218;48.886;9.426;2023-05-24T02:58:53;98291.16;;;13.09;71.46
22104;BME280;11218;48.886;9.426;2023-05-24T03:01:21;98283.31;;;13.08;71.57
22104;BME280;11218;48.886;9.426;2023-05-24T03:03:49;98287.66;;;13.14;71.33
22104;BME280;11218;48.886;9.426;2023-05-24T03:06:18;98284.94;;;13.09;71.44
22104;BME280;11218;48.886;9.426;2023-05-24T03:08:47;98289.00;;;13.11;71.20
22104;BME280;11218;48.886;9.426;2023-05-24T03:11:16;98293.59;;;13.11;70.77
22104;BME280;11218;48.886;9.426;2023-05-24T03:13:48;98282.53;;;13.12;71.36
22104;BME280;11218;48.886;9.426;2023-05-24T03:16:16;98294.94;;;13.08;70.91
22104;BME280;11218;48.886;9.426;2023-05-24T03:18:45;98285.78;;;13.14;70.62
22104;BME280;11218;48.886;9.426;2023-05-24T03:21:16;98285.47;;;13.11;71.27
22104;BME280;11218;48.886;9.426;2023-05-24T03:23:48;98287.88;;;13.07;71.26
22104;BME280;11218;48.886;9.426;2023-05-24T03:26:16;98285.97;;;13.03;71.04
22104;BME280;11218;48.886;9.426;2023-05-24T03:28:46;98292.19;;;13.03;70.61
22104;BME280;11218;48.886;9.426;2023-05-24T03:31:16;98285.41;;;13.01;71.15
22104;BME280;11218;48.886;9.426;2023-05-24T03:33:46;98286.22;;;13.01;71.32
22104;BME280;11218;48.886;9.426;2023-05-24T03:36:15;98284.84;;;12.99;71.51
22104;BME280;11218;48.886;9.426;2023-05-24T03:38:43;98282.75;;;13.06;71.49
22104;BME280;11218;48.886;9.426;2023-05-24T03:41:12;98285.44;;;13.06;70.50
22104;BME280;11218;48.886;9.426;2023-05-24T03:43:41;98281.06;;;13.00;71.39
22104;BME280;11218;48.886;9.426;2023-05-24T03:46:09;98279.44;;;12.99;71.86
22104;BME280;11218;48.886;9.426;2023-05-24T03:48:37;98282.13;;;12.94;71.38
22104;BME280;11218;48.886;9.426;2023-05-24T03:51:08;98281.59;;;12.97;71.84
22104;BME280;11218;48.886;9.426;2023-05-24T03:53:37;98282.19;;;13.04;71.92
22104;BME280;11218;48.886;9.426;2023-05-24T03:56:05;98272.50;;;13.08;71.75
22104;BME280;11218;48.886;9.426;2023-05-24T03:58:34;98273.59;;;13.12;71.61
22104;BME280;11218;48.886;9.426;2023-05-24T04:01:03;98272.53;;;13.13;71.72
22104;BME280;11218;48.886;9.426;2023-05-24T04:03:31;98275.56;;;13.17;70.65
22104;BME280;11218;48.886;9.426;2023-05-24T04:06:00;98272.78;;;13.11;71.36
22104;BME280;11218;48.886;9.426;2023-05-24T04:08:28;98277.13;;;13.12;71.22
22104;BME280;11218;48.886;9.426;2023-05-24T04:10:57;98269.00;;;13.12;70.65
22104;BME280;11218;48.886;9.426;2023-05-24T04:13:25;98269.06;;;13.18;70.49
22104;BME280;11218;48.886;9.426;2023-05-24T04:15:54;98280.59;;;13.08;70.67
22104;BME280;11218;48.886;9.426;2023-05-24T04:18:23;98269.53;;;13.09;70.88
22104;BME280;11218;48.886;9.426;2023-05-24T04:20:51;98264.16;;;13.14;70.75
22104;BME280;11218;48.886;9.426;2023-05-24T04:23:19;98274.47;;;13.18;70.38
22104;BME280;11218;48.886;9.426;2023-05-24T04:25:47;98275.16;;;13.03;70.32
22104;BME280;11218;48.886;9.426;2023-05-24T04:28:16;98273.00;;;13.05;70.80
22104;BME280;11218;48.886;9.426;2023-05-24T04:30:47;98277.00;;;12.97;70.93
22104;BME280;11218;48.886;9.426;2023-05-24T04:33:17;98269.16;;;12.96;71.01
22104;BME280;11218;48.886;9.426;2023-05-24T04:35:45;98282.94;;;12.94;71.03
22104;BME280;11218;48.886;9.426;2023-05-24T04:38:13;98283.44;;;12.91;71.20
22104;BME280;11218;48.886;9.426;2023-05-24T04:40:42;98273.66;;;12.85;70.97
22104;BME280;11218;48.886;9.426;2023-05-24T04:43:11;98280.97;;;12.84;70.30
22104;BME280;11218;48.886;9.426;2023-05-24T04:45:40;98286.03;;;12.76;70.34
22104;BME280;11218;48.886;9.426;2023-05-24T04:48:08;98280.53;;;12.61;70.97
22104;BME280;11218;48.886;9.426;2023-05-24T04:50:38;98284.84;;;12.62;70.84
22104;BME280;11218;48.886;9.426;2023-05-24T04:53:06;98292.84;;;12.52;70.42
22104;BME280;11218;48.886;9.426;2023-05-24T04:55:35;98298.75;;;12.48;70.80
22104;BME280;11218;48.886;9.426;2023-05-24T04:58:03;98308.91;;;12.36;71.40
22104;BME280;11218;48.886;9.426;2023-05-24T05:00:31;98301.25;;;12.28;71.46
22104;BME280;11218;48.886;9.426;2023-05-24T05:02:59;98302.31;;;12.27;72.02
22104;BME280;11218;48.886;9.426;2023-05-24T05:05:27;98296.06;;;12.22;72.15
22104;BME280;11218;48.886;9.426;2023-05-24T05:07:57;98303.91;;;12.23;72.44
22104;BME280;11218;48.886;9.426;2023-05-24T05:10:25;98302.38;;;12.32;72.70
22104;BME280;11218;48.886;9.426;2023-05-24T05:12:53;98302.22;;;12.17;72.05
22104;BME280;11218;48.886;9.426;2023-05-24T05:15:22;98301.44;;;12.22;71.76
22104;BME280;11218;48.886;9.426;2023-05-24T05:17:51;98308.19;;;12.19;72.33
22104;BME280;11218;48.886;9.426;2023-05-24T05:20:19;98311.63;;;12.14;71.97
22104;BME280;11218;48.886;9.426;2023-05-24T05:22:48;98309.00;;;12.20;72.06
22104;BME280;11218;48.886;9.426;2023-05-24T05:25:18;98303.22;;;12.11;72.76
22104;BME280;11218;48.886;9.426;2023-05-24T05:27:46;98302.78;;;12.19;73.16
22104;BME280;11218;48.886;9.426;2023-05-24T05:30:15;98302.13;;;12.34;73.14
22104;BME280;11218;48.886;9.426;2023-05-24T05:32:43;98307.22;;;12.30;71.71
22104;BME280;11218;48.886;9.426;2023-05-24T05:35:12;98299.38;;;12.29;71.96
22104;BME280;11218;48.886;9.426;2023-05-24T05:37:40;98294.47;;;12.26;72.53
22104;BME280;11218;48.886;9.426;2023-05-24T05:40:09;98299.78;;;12.42;73.02
22104;BME280;11218;48.886;9.426;2023-05-24T05:42:39;98300.41;;;12.49;72.59
22104;BME280;11218;48.886;9.426;2023-05-24T05:45:08;98306.72;;;12.60;72.55
22104;BME280;11218;48.886;9.426;2023-05-24T05:47:37;98289.78;;;12.75;73.24
22104;BME280;11218;48.886;9.426;2023-05-24T05:50:07;98298.81;;;12.86;71.44
22104;BME280;11218;48.886;9.426;2023-05-24T05:52:36;98301.00;;;12.89;71.52
22104;BME280;11218;48.886;9.426;2023-05-24T05:55:05;98295.09;;;12.97;71.21
22104;BME280;11218;48.886;9.426;2023-05-24T05:57:34;98300.84;;;13.05;71.14
22104;BME280;11218;48.886;9.426;2023-05-24T06:00:05;98305.22;;;13.11;70.23
22104;BME280;11218;48.886;9.426;2023-05-24T06:02:34;98301.25;;;13.19;70.02
22104;BME280;11218;48.886;9.426;2023-05-24T06:05:02;98303.72;;;13.26;69.53
22104;BME280;11218;48.886;9.426;2023-05-24T06:07:30;98301.63;;;13.33;69.65
22104;BME280;11218;48.886;9.426;2023-05-24T06:09:59;98303.25;;;13.39;66.86
22104;BME280;11218;48.886;9.426;2023-05-24T06:12:28;98309.91;;;13.21;66.44
22104;BME280;11218;48.886;9.426;2023-05-24T06:14:56;98297.94;;;13.12;67.55
22104;BME280;11218;48.886;9.426;2023-05-24T06:17:26;98302.00;;;13.14;67.93
22104;BME280;11218;48.886;9.426;2023-05-24T06:19:55;98295.84;;;13.19;68.25
22104;BME280;11218;48.886;9.426;2023-05-24T06:22:24;98294.00;;;13.25;67.46
22104;BME280;11218;48.886;9.426;2023-05-24T06:24:53;98302.13;;;13.30;68.04
22104;BME280;11218;48.886;9.426;2023-05-24T06:27:22;98295.84;;;13.19;67.24
22104;BME280;11218;48.886;9.426;2023-05-24T06:29:50;98301.63;;;13.01;67.09
22104;BME280;11218;48.886;9.426;2023-05-24T06:32:19;98307.06;;;13.06;67.61
22104;BME280;11218;48.886;9.426;2023-05-24T06:34:49;98292.91;;;12.94;67.92
22104;BME280;11218;48.886;9.426;2023-05-24T06:37:18;98306.81;;;13.07;68.60
22104;BME280;11218;48.886;9.426;2023-05-24T06:39:51;98308.47;;;13.13;68.95
22104;BME280;11218;48.886;9.426;2023-05-24T06:42:20;98311.00;;;13.20;66.59
22104;BME280;11218;48.886;9.426;2023-05-24T06:44:48;98313.59;;;13.10;67.70
22104;BME280;11218;48.886;9.426;2023-05-24T06:47:17;98308.22;;;13.15;67.05
22104;BME280;11218;48.886;9.426;2023-05-24T06:49:46;98328.16;;;13.09;66.98
22104;BME280;11218;48.886;9.426;2023-05-24T06:52:17;98328.59;;;12.96;68.18
22104;BME280;11218;48.886;9.426;2023-05-24T06:54:45;98330.50;;;12.95;67.87
22104;BME280;11218;48.886;9.426;2023-05-24T06:57:13;98347.69;;;12.84;67.50
22104;BME280;11218;48.886;9.426;2023-05-24T06:59:42;98350.94;;;12.86;68.39
22104;BME280;11218;48.886;9.426;2023-05-24T07:02:10;98352.03;;;12.85;67.86
22104;BME280;11218;48.886;9.426;2023-05-24T07:04:39;98356.75;;;12.73;68.60
22104;BME280;11218;48.886;9.426;2023-05-24T07:07:08;98353.19;;;12.67;68.58
22104;BME280;11218;48.886;9.426;2023-05-24T07:09:40;98358.03;;;12.60;69.25
22104;BME280;11218;48.886;9.426;2023-05-24T07:12:10;98359.41;;;12.68;70.06
22104;BME280;11218;48.886;9.426;2023-05-24T07:14:38;98360.88;;;12.80;68.59
22104;BME280;11218;48.886;9.426;2023-05-24T07:17:06;98358.09;;;12.70;68.65
22104;BME280;11218;48.886;9.426;2023-05-24T07:19:35;98362.97;;;12.73;68.34
22104;BME280;11218;48.886;9.426;2023-05-24T07:22:04;98358.66;;;12.72;69.24
22104;BME280;11218;48.886;9.426;2023-05-24T07:24:33;98347.38;;;12.80;68.61
22104;BME280;11218;48.886;9.426;2023-05-24T07:27:03;98370.47;;;12.93;68.90
22104;BME280;11218;48.886;9.426;2023-05-24T07:29:31;98365.00;;;12.88;67.93
22104;BME280;11218;48.886;9.426;2023-05-24T07:32:00;98367.97;;;12.87;67.50
22104;BME280;11218;48.886;9.426;2023-05-24T07:34:28;98368.88;;;12.97;67.26
22104;BME280;11218;48.886;9.426;2023-05-24T07:36:57;98376.84;;;12.82;68.15
22104;BME280;11218;48.886;9.426;2023-05-24T07:39:27;98370.72;;;12.92;67.69
22104;BME280;11218;48.886;9.426;2023-05-24T07:41:55;98371.84;;;12.96;66.90
22104;BME280;11218;48.886;9.426;2023-05-24T07:44:25;98369.34;;;12.89;66.87
22104;BME280;11218;48.886;9.426;2023-05-24T07:46:53;98376.91;;;12.87;67.40
22104;BME280;11218;48.886;9.426;2023-05-24T07:49:22;98378.28;;;12.90;67.40
22104;BME280;11218;48.886;9.426;2023-05-24T07:51:51;98372.72;;;12.74;67.71
22104;BME280;11218;48.886;9.426;2023-05-24T07:54:22;98382.81;;;12.84;68.68
22104;BME280;11218;48.886;9.426;2023-05-24T07:56:51;98380.91;;;12.84;68.66
22104;BME280;11218;48.886;9.426;2023-05-24T07:59:19;98387.69;;;12.87;68.72
22104;BME280;11218;48.886;9.426;2023-05-24T08:01:50;98387.25;;;12.95;67.63
22104;BME280;11218;48.886;9.426;2023-05-24T08:04:18;98380.34;;;12.82;66.99
22104;BME280;11218;48.886;9.426;2023-05-24T08:06:47;98396.94;;;12.91;67.45
22104;BME280;11218;48.886;9.426;2023-05-24T08:09:16;98393.09;;;12.87;68.17
22104;BME280;11218;48.886;9.426;2023-05-24T08:11:44;98395.84;;;12.92;66.73
22104;BME280;11218;48.886;9.426;2023-05-24T08:14:13;98399.47;;;12.76;66.69
22104;BME280;11218;48.886;9.426;2023-05-24T08:16:41;98406.81;;;12.80;67.34
22104;BME280;11218;48.886;9.426;2023-05-24T08:19:11;98398.59;;;12.97;66.37
22104;BME280;11218;48.886;9.426;2023-05-24T08:21:39;98395.91;;;12.97;66.60
22104;BME280;11218;48.886;9.426;2023-05-24T08:24:09;98396.94;;;12.91;67.17
22104;BME280;11218;48.886;9.426;2023-05-24T08:26:38;98392.44;;;13.02;65.52
22104;BME280;11218;48.886;9.426;2023-05-24T08:29:06;98389.38;;;13.20;66.80
22104;BME280;11218;48.886;9.426;2023-05-24T08:31:35;98397.06;;;13.38;66.16
22104;BME280;11218;48.886;9.426;2023-05-24T08:34:04;98386.84;;;13.45;65.28
22104;BME280;11218;48.886;9.426;2023-05-24T08:36:34;98392.63;;;13.59;63.93
22104;BME280;11218;48.886;9.426;2023-05-24T08:39:03;98392.88;;;13.58;64.50
22104;BME280;11218;48.886;9.426;2023-05-24T08:41:33;98400.69;;;13.54;64.42
22104;BME280;11218;48.886;9.426;2023-05-24T08:44:05;98395.09;;;13.66;64.91
22104;BME280;11218;48.886;9.426;2023-05-24T08:46:34;98400.03;;;13.74;64.92
22104;BME280;11218;48.886;9.426;2023-05-24T08:49:03;98402.25;;;13.82;64.09
22104;BME280;11218;48.886;9.426;2023-05-24T08:51:34;98404.63;;;13.73;63.24
22104;BME280;11218;48.886;9.426;2023-05-24T08:54:04;98409.13;;;13.58;64.17
22104;BME280;11218;48.886;9.426;2023-05-24T08:56:33;98397.22;;;13.59;64.11
22104;BME280;11218;48.886;9.426;2023-05-24T08:59:01;98407.03;;;13.70;64.72
22104;BME280;11218;48.886;9.426;2023-05-24T09:01:30;98406.53;;;13.78;64.49
22104;BME280;11218;48.886;9.426;2023-05-24T09:04:03;98408.44;;;13.77;63.91
22104;BME280;11218;48.886;9.426;2023-05-24T09:06:35;98405.25;;;13.86;64.25
22104;BME280;11218;48.886;9.426;2023-05-24T09:09:06;98405.50;;;13.84;63.57
22104;BME280;11218;48.886;9.426;2023-05-24T09:11:38;98399.91;;;14.01;63.76
22104;BME280;11218;48.886;9.426;2023-05-24T09:14:09;98415.06;;;13.97;61.81
22104;BME280;11218;48.886;9.426;2023-05-24T09:16:37;98410.72;;;13.96;62.77
22104;BME280;11218;48.886;9.426;2023-05-24T09:19:06;98411.28;;;14.03;62.43
22104;BME280;11218;48.886;9.426;2023-05-24T09:21:36;98404.72;;;13.89;62.87
22104;BME280;11218;48.886;9.426;2023-05-24T09:24:06;98405.31;;;13.96;63.48
22104;BME280;11218;48.886;9.426;2023-05-24T09:26:35;98399.03;;;13.90;62.26
22104;BME280;11218;48.886;9.426;2023-05-24T09:29:05;98403.63;;;13.85;63.36
22104;BME280;11218;48.886;9.426;2023-05-24T09:31:35;98407.44;;;13.89;64.04
22104;BME280;11218;48.886;9.426;2023-05-24T09:34:08;98407.59;;;13.72;61.93
22104;BME280;11218;48.886;9.426;2023-05-24T09:36:40;98415.75;;;13.77;63.56
22104;BME280;11218;48.886;9.426;2023-05-24T09:39:09;98415.19;;;13.75;62.80
22104;BME280;11218;48.886;9.426;2023-05-24T09:41:38;98416.25;;;13.74;62.85
22104;BME280;11218;48.886;9.426;2023-05-24T09:44:06;98418.03;;;13.58;63.06
22104;BME280;11218;48.886;9.426;2023-05-24T14:52:28;98272.22;;;18.88;41.53
22104;BME280;11218;48.886;9.426;2023-05-24T14:54:58;98273.13;;;18.65;42.75
22104;BME280;11218;48.886;9.426;2023-05-24T14:57:27;98280.38;;;18.37;42.07
22104;BME280;11218;48.886;9.426;2023-05-24T14:59:55;98275.66;;;18.24;43.16
22104;BME280;11218;48.886;9.426;2023-05-24T15:02:24;98269.59;;;18.27;43.08
22104;BME280;11218;48.886;9.426;2023-05-24T15:04:52;98273.06;;;18.14;43.02
22104;BME280;11218;48.886;9.426;2023-05-24T15:07:20;98275.03;;;18.08;42.76
22104;BME280;11218;48.886;9.426;2023-05-24T15:09:50;98274.06;;;17.99;41.42
22104;BME280;11218;48.886;9.426;2023-05-24T15:12:18;98263.00;;;17.90;39.11
22104;BME280;11218;48.886;9.426;2023-05-24T15:14:47;98265.13;;;17.75;40.19
22104;BME280;11218;48.886;9.426;2023-05-24T15:17:15;98265.72;;;17.71;40.36
22104;BME280;11218;48.886;9.426;2023-05-24T15:19:47;98274.78;;;17.62;42.06
22104;BME280;11218;48.886;9.426;2023-05-24T15:22:15;98274.53;;;17.58;41.84
22104;BME280;11218;48.886;9.426;2023-05-24T15:24:43;98263.84;;;17.67;42.65
22104;BME280;11218;48.886;9.426;2023-05-24T15:27:13;98266.25;;;17.92;42.93
22104;BME280;11218;48.886;9.426;2023-05-24T15:29:41;98261.56;;;18.17;41.78
22104;BME280;11218;48.886;9.426;2023-05-24T15:32:09;98271.53;;;18.45;42.42
22104;BME280;11218;48.886;9.426;2023-05-24T15:34:37;98262.16;;;18.32;40.09
22104;BME280;11218;48.886;9.426;2023-05-24T15:37:06;98266.88;;;17.84;41.16
22104;BME280;11218;48.886;9.426;2023-05-24T15:39:34;98263.66;;;17.58;41.56
22104;BME280;11218;48.886;9.426;2023-05-24T15:42:02;98265.38;;;17.49;42.81
22104;BME280;11218;48.886;9.426;2023-05-24T15:44:33;98262.31;;;17.56;43.77
22104;BME280;11218;48.886;9.426;2023-05-24T15:47:01;98263.66;;;17.58;43.39
22104;BME280;11218;48.886;9.426;2023-05-24T15:49:29;98256.34;;;17.54;42.64
22104;BME280;11218;48.886;9.426;2023-05-24T15:51:57;98260.41;;;17.56;42.02
22104;BME280;11218;48.886;9.426;2023-05-24T15:54:30;98257.53;;;17.71;41.50
22104;BME280;11218;48.886;9.426;2023-05-24T15:56:59;98265.06;;;17.80;40.37
22104;BME280;11218;48.886;9.426;2023-05-24T15:59:28;98269.53;;;17.70;41.03
22104;BME280;11218;48.886;9.426;2023-05-24T16:01:57;98262.94;;;17.48;41.91
22104;BME280;11218;48.886;9.426;2023-05-24T16:04:25;98276.38;;;17.39;42.55
22104;BME280;11218;48.886;9.426;2023-05-24T16:06:54;98272.50;;;17.16;42.63
22104;BME280;11218;48.886;9.426;2023-05-24T16:09:22;98272.56;;;17.11;42.44
22104;BME280;11218;48.886;9.426;2023-05-24T16:11:50;98271.59;;;17.02;43.09
22104;BME280;11218;48.886;9.426;2023-05-24T16:14:21;98272.50;;;16.92;43.50
22104;BME280;11218;48.886;9.426;2023-05-24T16:16:50;98271.44;;;16.88;44.22
22104;BME280;11218;48.886;9.426;2023-05-24T16:19:19;98265.47;;;16.86;43.86
22104;BME280;11218;48.886;9.426;2023-05-24T16:21:47;98270.09;;;16.86;45.44
22104;BME280;11218;48.886;9.426;2023-05-24T16:24:16;98262.41;;;16.93;45.49
22104;BME280;11218;48.886;9.426;2023-05-24T16:26:44;98255.44;;;17.11;44.35
22104;BME280;11218;48.886;9.426;2023-05-24T16:29:12;98259.44;;;17.18;42.98
22104;BME280;11218;48.886;9.426;2023-05-24T16:31:42;98255.63;;;17.19;43.42
22104;BME280;11218;48.886;9.426;2023-05-24T16:34:10;98249.25;;;17.29;43.66
22104;BME280;11218;48.886;9.426;2023-05-24T16:36:40;98254.66;;;17.34;43.39
22104;BME280;11218;48.886;9.426;2023-05-24T16:39:11;98248.59;;;17.42;44.00
22104;BME280;11218;48.886;9.426;2023-05-24T16:41:39;98249.91;;;17.45;43.61
22104;BME280;11218;48.886;9.426;2023-05-24T16:44:08;98258.19;;;17.34;43.07
22104;BME280;11218;48.886;9.426;2023-05-24T16:46:43;98253.09;;;17.28;43.58
22104;BME280;11218;48.886;9.426;2023-05-24T16:49:12;98261.47;;;17.31;44.08
22104;BME280;11218;48.886;9.426;2023-05-24T16:51:43;98261.53;;;17.26;44.27
22104;BME280;11218;48.886;9.426;2023-05-24T16:54:13;98264.53;;;17.25;43.19
22104;BME280;11218;48.886;9.426;2023-05-24T16:56:42;98261.63;;;17.16;44.11
22104;BME280;11218;48.886;9.426;2023-05-24T16:59:13;98266.31;;;17.11;43.92
22104;BME280;11218;48.886;9.426;2023-05-24T17:01:42;98267.13;;;17.11;43.09
22104;BME280;11218;48.886;9.426;2023-05-24T17:04:12;98260.13;;;17.05;43.08
22104;BME280;11218;48.886;9.426;2023-05-24T17:06:46;98262.63;;;17.01;43.00
22104;BME280;11218;48.886;9.426;2023-05-24T17:09:15;98257.41;;;17.05;42.07
22104;BME280;11218;48.886;9.426;2023-05-24T17:11:43;98264.19;;;17.07;43.00
22104;BME280;11218;48.886;9.426;2023-05-24T17:14:11;98259.59;;;17.03;42.52
22104;BME280;11218;48.886;9.426;2023-05-24T17:16:39;98254.13;;;17.08;42.34
22104;BME280;11218;48.886;9.426;2023-05-24T17:19:08;98258.97;;;17.11;42.92
22104;BME280;11218;48.886;9.426;2023-05-24T17:21:38;98255.22;;;17.07;43.49
22104;BME280;11218;48.886;9.426;2023-05-24T17:24:08;98253.59;;;17.06;43.75
22104;BME280;11218;48.886;9.426;2023-05-24T17:26:36;98266.38;;;17.05;43.46
22104;BME280;11218;48.886;9.426;2023-05-24T17:29:05;98261.97;;;17.09;43.16
22104;BME280;11218;48.886;9.426;2023-05-24T17:31:33;98265.44;;;16.91;42.61
22104;BME280;11218;48.886;9.426;2023-05-24T17:34:02;98269.56;;;16.84;42.51
22104;BME280;11218;48.886;9.426;2023-05-24T17:36:30;98267.50;;;16.70;42.68
22104;BME280;11218;48.886;9.426;2023-05-24T17:39:02;98272.66;;;16.72;43.10
22104;BME280;11218;48.886;9.426;2023-05-24T17:41:32;98281.66;;;16.62;41.38
22104;BME280;11218;48.886;9.426;2023-05-24T17:44:00;98279.81;;;16.53;42.31
22104;BME280;11218;48.886;9.426;2023-05-24T17:46:28;98275.78;;;16.45;42.14
22104;BME280;11218;48.886;9.426;2023-05-24T17:48:59;98284.72;;;16.51;41.78
22104;BME280;11218;48.886;9.426;2023-05-24T17:51:27;98285.56;;;16.46;38.41
22104;BME280;11218;48.886;9.426;2023-05-24T17:53:55;98282.09;;;16.35;37.49
22104;BME280;11218;48.886;9.426;2023-05-24T17:56:24;98279.44;;;16.30;38.34
22104;BME280;11218;48.886;9.426;2023-05-24T17:58:54;98276.19;;;16.28;36.78
22104;BME280;11218;48.886;9.426;2023-05-24T18:01:23;98278.69;;;16.20;37.56
22104;BME280;11218;48.886;9.426;2023-05-24T18:03:51;98278.22;;;16.07;37.97
22104;BME280;11218;48.886;9.426;2023-05-24T18:06:19;98280.38;;;16.05;36.84
22104;BME280;11218;48.886;9.426;2023-05-24T18:08:47;98286.97;;;15.94;36.33
22104;BME280;11218;48.886;9.426;2023-05-24T18:11:15;98287.28;;;15.83;37.03
22104;BME280;11218;48.886;9.426;2023-05-24T18:13:43;98294.63;;;15.72;36.47
22104;BME280;11218;48.886;9.426;2023-05-24T18:16:13;98291.41;;;15.65;35.61